createdAt,value
2018-07-28T00:00:10.666Z,23.80
2018-07-28T00:00:43.749Z,23.70
2018-07-28T00:01:16.810Z,23.80
2018-07-28T00:01:49.906Z,23.80
2018-07-28T00:02:22.994Z,23.70
2018-07-28T00:02:56.040Z,23.80
2018-07-28T00:03:29.078Z,23.70
2018-07-28T00:04:02.146Z,23.80
2018-07-28T00:04:35.209Z,23.70
2018-07-28T00:05:09.155Z,23.80
2018-07-28T00:05:42.213Z,23.70
2018-07-28T00:06:15.235Z,23.60
2018-07-28T00:06:48.335Z,23.50
2018-07-28T00:07:21.411Z,23.60
2018-07-28T00:07:54.449Z,23.30
2018-07-28T00:08:27.601Z,23.30
2018-07-28T00:09:00.627Z,23.30
2018-07-28T00:09:33.749Z,23.40
2018-07-28T00:10:10.411Z,23.40
2018-07-28T00:10:43.513Z,23.30
2018-07-28T00:11:16.567Z,23.30
2018-07-28T00:11:49.647Z,23.30
2018-07-28T00:12:22.702Z,23.40
2018-07-28T00:12:55.765Z,23.40
2018-07-28T00:13:28.859Z,23.30
2018-07-28T00:14:02.026Z,23.30
2018-07-28T00:14:35.074Z,23.40
2018-07-28T00:15:10.086Z,23.40
2018-07-28T00:15:43.233Z,23.20
2018-07-28T00:16:16.299Z,23.20
2018-07-28T00:16:49.543Z,23.10
2018-07-28T00:17:22.641Z,23.00
2018-07-28T00:17:55.703Z,23.10
2018-07-28T00:18:28.769Z,23.00
2018-07-28T00:19:01.843Z,23.00
2018-07-28T00:19:34.909Z,23.10
2018-07-28T00:20:09.973Z,23.10
2018-07-28T00:20:43.003Z,23.10
2018-07-28T00:21:16.027Z,23.20
2018-07-28T00:21:49.039Z,23.10
2018-07-28T00:22:22.107Z,23.10
2018-07-28T00:22:55.149Z,23.20
2018-07-28T00:23:28.135Z,23.20
2018-07-28T00:24:01.151Z,23.10
2018-07-28T00:24:34.193Z,22.90
2018-07-28T00:25:09.717Z,23.00
2018-07-28T00:26:46.131Z,23.00
2018-07-28T00:27:19.148Z,22.90
2018-07-28T00:27:52.161Z,23.20
2018-07-28T00:28:25.136Z,23.10
2018-07-28T00:28:58.138Z,23.00
2018-07-28T00:29:31.151Z,23.10
2018-07-28T00:30:06.841Z,23.10
2018-07-28T00:30:39.927Z,23.10
2018-07-28T00:31:12.961Z,23.10
2018-07-28T00:31:45.994Z,23.10
2018-07-28T00:32:19.035Z,23.20
2018-07-28T00:32:52.091Z,23.10
2018-07-28T00:33:25.145Z,23.10
2018-07-28T00:33:58.182Z,23.10
2018-07-28T00:34:31.265Z,23.10
2018-07-28T00:35:04.359Z,23.20
2018-07-28T00:35:37.355Z,23.20
2018-07-28T00:36:10.905Z,23.10
2018-07-28T00:36:43.937Z,23.20
2018-07-28T00:37:16.977Z,23.10
2018-07-28T00:37:50.032Z,23.20
2018-07-28T00:38:23.069Z,23.10
2018-07-28T00:38:56.512Z,23.20
2018-07-28T00:39:29.561Z,23.10
2018-07-28T00:40:02.621Z,23.10
2018-07-28T00:40:35.660Z,23.10
2018-07-28T00:41:08.713Z,23.10
2018-07-28T00:41:42.078Z,23.00
2018-07-28T00:42:15.085Z,23.00
2018-07-28T00:42:48.087Z,22.90
2018-07-28T00:43:21.087Z,23.00
2018-07-28T00:43:54.119Z,22.90
2018-07-28T00:44:27.181Z,23.00
2018-07-28T00:45:00.253Z,22.90
2018-07-28T00:45:33.327Z,23.00
2018-07-28T00:46:06.412Z,23.10
2018-07-28T00:46:39.466Z,22.90
2018-07-28T00:47:14.235Z,23.00
2018-07-28T00:47:47.284Z,23.00
2018-07-28T00:48:20.329Z,23.00
2018-07-28T00:48:53.345Z,22.80
2018-07-28T00:49:26.481Z,23.00
2018-07-28T00:49:59.537Z,22.80
2018-07-28T00:50:32.591Z,22.80
2018-07-28T00:51:05.671Z,22.90
2018-07-28T00:51:38.729Z,22.90
2018-07-28T00:52:11.800Z,22.80
2018-07-28T00:52:44.867Z,22.80
2018-07-28T00:53:17.973Z,22.70
2018-07-28T00:53:51.043Z,22.50
2018-07-28T00:54:24.071Z,22.50
2018-07-28T00:54:57.091Z,22.40
2018-07-28T00:55:30.147Z,22.50
2018-07-28T00:56:03.665Z,22.50
2018-07-28T00:56:36.707Z,22.50
2018-07-28T00:57:09.723Z,22.50
2018-07-28T00:57:42.765Z,22.40
2018-07-28T00:58:15.740Z,22.50
2018-07-28T00:58:48.779Z,22.40
2018-07-28T00:59:21.819Z,22.40
2018-07-28T00:59:54.858Z,22.40
2018-07-28T01:00:27.891Z,22.40
2018-07-28T01:01:00.961Z,22.30
2018-07-28T01:01:34.000Z,22.30
2018-07-28T01:02:07.081Z,22.20
2018-07-28T01:02:40.139Z,22.30
2018-07-28T01:03:13.168Z,22.30
2018-07-28T01:03:46.181Z,22.10
2018-07-28T01:04:19.207Z,22.00
2018-07-28T01:04:52.220Z,22.10
2018-07-28T01:05:25.270Z,22.20
2018-07-28T01:05:58.251Z,22.20
2018-07-28T01:06:31.322Z,22.20
2018-07-28T01:07:04.512Z,22.20
2018-07-28T01:07:37.965Z,22.10
2018-07-28T01:08:10.963Z,22.20
2018-07-28T01:08:44.522Z,22.20
2018-07-28T01:09:17.548Z,22.10
2018-07-28T01:09:50.935Z,22.10
2018-07-28T01:10:24.035Z,22.00
2018-07-28T01:10:57.121Z,22.10
2018-07-28T01:11:30.201Z,22.10
2018-07-28T01:12:03.252Z,22.00
2018-07-28T01:12:36.281Z,22.00
2018-07-28T01:13:09.411Z,22.10
2018-07-28T01:13:42.393Z,22.00
2018-07-28T01:14:15.398Z,22.00
2018-07-28T01:14:48.429Z,22.00
2018-07-28T01:15:21.476Z,22.00
2018-07-28T01:15:54.515Z,22.00
2018-07-28T01:16:27.535Z,21.90
2018-07-28T01:17:00.588Z,21.90
2018-07-28T01:17:33.651Z,21.90
2018-07-28T01:18:06.740Z,21.90
2018-07-28T01:18:39.825Z,21.90
2018-07-28T01:19:12.921Z,22.00
2018-07-28T01:19:45.960Z,22.00
2018-07-28T01:20:19.046Z,22.10
2018-07-28T01:20:52.195Z,22.00
2018-07-28T01:21:25.245Z,22.10
2018-07-28T01:21:58.252Z,22.00
2018-07-28T01:22:31.334Z,22.00
2018-07-28T01:23:04.381Z,22.00
2018-07-28T01:23:37.402Z,22.00
2018-07-28T01:24:10.471Z,22.00
2018-07-28T01:24:43.507Z,22.00
2018-07-28T01:25:16.544Z,22.00
2018-07-28T01:25:49.873Z,22.00
2018-07-28T01:26:22.919Z,22.10
2018-07-28T01:26:55.985Z,22.10
2018-07-28T01:27:29.053Z,22.10
2018-07-28T01:28:02.101Z,22.10
2018-07-28T01:28:35.193Z,22.00
2018-07-28T01:29:16.507Z,22.10
2018-07-28T01:29:49.505Z,22.00
2018-07-28T01:30:30.251Z,22.00
2018-07-28T01:31:03.351Z,22.00
2018-07-28T01:31:36.401Z,22.00
2018-07-28T01:32:09.373Z,22.10
2018-07-28T01:32:42.405Z,22.00
2018-07-28T01:33:15.441Z,22.10
2018-07-28T01:33:48.477Z,22.00
2018-07-28T01:34:21.483Z,22.00
2018-07-28T01:34:54.491Z,22.00
2018-07-28T01:35:27.789Z,22.00
2018-07-28T01:36:00.831Z,22.00
2018-07-28T01:36:33.899Z,22.00
2018-07-28T01:37:06.883Z,22.00
2018-07-28T01:37:39.893Z,22.00
2018-07-28T01:38:12.927Z,22.10
2018-07-28T01:38:45.931Z,22.10
2018-07-28T01:39:18.950Z,22.00
2018-07-28T01:39:51.975Z,22.10
2018-07-28T01:40:25.017Z,22.00
2018-07-28T01:40:58.005Z,22.00
2018-07-28T01:41:31.067Z,22.10
2018-07-28T01:42:04.129Z,22.00
2018-07-28T01:42:37.129Z,22.00
2018-07-28T01:43:10.169Z,22.00
2018-07-28T01:43:43.199Z,22.00
2018-07-28T01:44:16.241Z,22.00
2018-07-28T01:44:49.264Z,22.00
2018-07-28T01:45:22.287Z,22.00
2018-07-28T01:45:55.311Z,22.00
2018-07-28T01:46:28.302Z,22.00
2018-07-28T01:47:01.297Z,22.10
2018-07-28T01:47:34.351Z,22.00
2018-07-28T01:48:07.411Z,22.00
2018-07-28T01:48:40.455Z,22.00
2018-07-28T01:49:13.529Z,22.00
2018-07-28T01:49:46.525Z,22.00
2018-07-28T01:50:19.582Z,22.00
2018-07-28T01:50:52.663Z,22.00
2018-07-28T01:51:25.736Z,22.10
2018-07-28T01:51:58.765Z,22.10
2018-07-28T01:52:31.815Z,22.00
2018-07-28T01:53:04.979Z,22.10
2018-07-28T01:53:38.096Z,22.20
2018-07-28T01:54:11.121Z,22.10
2018-07-28T01:54:44.147Z,22.10
2018-07-28T01:55:17.173Z,22.00
2018-07-28T01:55:50.207Z,22.10
2018-07-28T01:56:23.199Z,22.10
2018-07-28T01:56:56.223Z,21.90
2018-07-28T01:57:29.257Z,22.00
2018-07-28T01:58:02.306Z,22.00
2018-07-28T01:58:35.347Z,22.10
2018-07-28T01:59:08.313Z,22.20
2018-07-28T01:59:41.360Z,22.10
2018-07-28T02:00:14.372Z,22.10
2018-07-28T02:00:47.335Z,22.00
2018-07-28T02:01:20.352Z,22.10
2018-07-28T02:01:53.293Z,22.10
2018-07-28T02:02:26.389Z,22.00
2018-07-28T02:02:59.415Z,22.00
2018-07-28T02:03:32.875Z,22.10
2018-07-28T02:04:05.901Z,22.10
2018-07-28T02:04:38.961Z,22.10
2018-07-28T02:05:12.050Z,22.10
2018-07-28T02:05:45.078Z,22.10
2018-07-28T02:06:18.093Z,22.20
2018-07-28T02:06:51.137Z,22.10
2018-07-28T02:07:24.194Z,22.10
2018-07-28T02:07:57.271Z,22.10
2018-07-28T02:08:30.273Z,22.10
2018-07-28T02:09:05.742Z,22.20
2018-07-28T02:09:38.758Z,22.10
2018-07-28T02:10:11.815Z,22.10
2018-07-28T02:10:44.823Z,22.20
2018-07-28T02:11:17.947Z,22.00
2018-07-28T02:11:50.981Z,22.00
2018-07-28T02:12:24.071Z,22.10
2018-07-28T02:12:57.095Z,22.20
2018-07-28T02:13:30.143Z,22.10
2018-07-28T02:14:03.309Z,22.10
2018-07-28T02:14:36.374Z,22.10
2018-07-28T02:15:09.483Z,22.20
2018-07-28T02:15:42.579Z,22.20
2018-07-28T02:16:15.621Z,22.20
2018-07-28T02:16:48.634Z,22.30
2018-07-28T02:17:21.716Z,22.30
2018-07-28T02:17:54.713Z,22.40
2018-07-28T02:18:27.721Z,22.40
2018-07-28T02:19:00.781Z,22.40
2018-07-28T02:19:33.835Z,22.30
2018-07-28T02:20:07.616Z,22.40
2018-07-28T02:20:40.668Z,22.40
2018-07-28T02:21:13.733Z,22.40
2018-07-28T02:21:46.776Z,22.40
2018-07-28T02:22:19.837Z,22.40
2018-07-28T02:22:52.887Z,22.40
2018-07-28T02:23:25.907Z,22.40
2018-07-28T02:23:58.999Z,22.30
2018-07-28T02:24:32.058Z,22.40
2018-07-28T02:25:07.423Z,22.40
2018-07-28T02:25:40.487Z,22.30
2018-07-28T02:26:13.535Z,22.40
2018-07-28T02:26:46.527Z,22.30
2018-07-28T02:27:19.527Z,22.40
2018-07-28T02:27:52.555Z,22.40
2018-07-28T02:28:25.607Z,22.40
2018-07-28T02:28:58.641Z,22.30
2018-07-28T02:29:31.644Z,22.30
2018-07-28T02:30:05.307Z,22.30
2018-07-28T02:30:38.361Z,22.40
2018-07-28T02:31:11.388Z,22.40
2018-07-28T02:31:44.441Z,22.40
2018-07-28T02:32:17.496Z,22.30
2018-07-28T02:32:50.522Z,22.40
2018-07-28T02:33:23.598Z,22.40
2018-07-28T02:33:56.619Z,22.40
2018-07-28T02:34:29.641Z,22.20
2018-07-28T02:35:02.740Z,22.30
2018-07-28T02:35:35.816Z,22.40
2018-07-28T02:36:08.872Z,22.40
2018-07-28T02:36:42.185Z,22.30
2018-07-28T02:37:15.213Z,22.30
2018-07-28T02:37:48.244Z,22.40
2018-07-28T02:38:21.318Z,22.30
2018-07-28T02:38:54.424Z,22.30
2018-07-28T02:39:27.482Z,22.30
2018-07-28T02:40:00.601Z,22.40
2018-07-28T02:40:33.726Z,22.40
2018-07-28T02:41:06.719Z,22.50
2018-07-28T02:41:40.323Z,22.40
2018-07-28T02:42:13.340Z,22.40
2018-07-28T02:42:46.356Z,22.40
2018-07-28T02:43:19.383Z,22.40
2018-07-28T02:43:52.405Z,22.40
2018-07-28T02:44:25.463Z,22.40
2018-07-28T02:44:58.464Z,22.40
2018-07-28T02:45:31.500Z,22.50
2018-07-28T02:46:04.759Z,22.40
2018-07-28T02:46:38.211Z,22.40
2018-07-28T02:47:11.232Z,22.40
2018-07-28T02:47:44.271Z,22.40
2018-07-28T02:48:17.287Z,22.40
2018-07-28T02:48:50.301Z,22.50
2018-07-28T02:49:23.360Z,22.40
2018-07-28T02:49:56.349Z,22.30
2018-07-28T02:50:29.404Z,22.50
2018-07-28T02:51:02.438Z,22.40
2018-07-28T02:51:35.485Z,22.30
2018-07-28T02:52:08.466Z,22.50
2018-07-28T02:52:41.518Z,22.40
2018-07-28T02:53:14.568Z,22.40
2018-07-28T02:53:47.645Z,22.40
2018-07-28T02:54:20.670Z,22.40
2018-07-28T02:54:53.807Z,22.50
2018-07-28T02:55:26.826Z,22.40
2018-07-28T02:55:59.876Z,22.40
2018-07-28T02:56:32.879Z,22.50
2018-07-28T02:57:05.900Z,22.50
2018-07-28T02:57:39.005Z,22.50
2018-07-28T02:58:12.022Z,22.40
2018-07-28T02:58:45.027Z,22.50
2018-07-28T02:59:17.993Z,22.50
2018-07-28T02:59:51.300Z,22.50
2018-07-28T03:00:24.433Z,22.50
2018-07-28T03:00:57.436Z,22.50
2018-07-28T03:01:30.464Z,22.50
2018-07-28T03:02:03.607Z,22.50
2018-07-28T03:02:36.616Z,22.60
2018-07-28T03:03:09.630Z,22.50
2018-07-28T03:03:42.637Z,22.60
2018-07-28T03:04:15.700Z,22.60
2018-07-28T03:04:48.732Z,22.80
2018-07-28T03:05:21.806Z,22.70
2018-07-28T03:05:54.798Z,22.70
2018-07-28T03:06:27.853Z,22.60
2018-07-28T03:07:00.878Z,22.70
2018-07-28T03:07:33.914Z,22.70
2018-07-28T03:08:07.789Z,22.80
2018-07-28T03:08:40.786Z,22.80
2018-07-28T03:09:13.942Z,22.80
2018-07-28T03:09:46.978Z,22.70
2018-07-28T03:10:20.016Z,22.70
2018-07-28T03:10:53.086Z,22.70
2018-07-28T03:11:26.152Z,22.80
2018-07-28T03:11:59.186Z,22.80
2018-07-28T03:12:32.235Z,22.80
2018-07-28T03:13:05.312Z,22.90
2018-07-28T03:13:38.343Z,22.90
2018-07-28T03:14:11.352Z,22.90
2018-07-28T03:14:44.396Z,22.90
2018-07-28T03:15:30.839Z,22.80
2018-07-28T03:16:11.162Z,22.90
2018-07-28T03:16:44.204Z,22.80
2018-07-28T03:17:17.286Z,22.90
2018-07-28T03:17:50.329Z,22.90
2018-07-28T03:18:23.350Z,22.90
2018-07-28T03:18:57.023Z,22.80
2018-07-28T03:19:30.110Z,22.90
2018-07-28T03:20:03.252Z,22.80
2018-07-28T03:20:36.332Z,22.80
2018-07-28T03:21:09.339Z,22.80
2018-07-28T03:21:42.355Z,22.80
2018-07-28T03:22:15.378Z,22.80
2018-07-28T03:22:48.388Z,22.70
2018-07-28T03:23:21.400Z,22.90
2018-07-28T03:23:54.658Z,22.80
2018-07-28T03:24:27.730Z,22.80
2018-07-28T03:25:00.728Z,22.80
2018-07-28T03:25:33.736Z,22.80
2018-07-28T03:26:06.826Z,22.70
2018-07-28T03:26:39.829Z,22.80
2018-07-28T03:27:12.864Z,22.80
2018-07-28T03:27:45.954Z,22.70
2018-07-28T03:28:18.996Z,22.70
2018-07-28T03:28:51.982Z,22.80
2018-07-28T03:29:24.951Z,22.80
2018-07-28T03:29:58.038Z,22.70
2018-07-28T03:30:31.057Z,22.80
2018-07-28T03:31:04.088Z,22.70
2018-07-28T03:31:37.081Z,22.80
2018-07-28T03:32:10.108Z,22.70
2018-07-28T03:32:43.083Z,22.80
2018-07-28T03:33:16.126Z,22.90
2018-07-28T03:33:49.338Z,22.90
2018-07-28T03:34:22.339Z,23.00
2018-07-28T03:34:55.287Z,22.90
2018-07-28T03:35:28.224Z,22.90
2018-07-28T03:36:01.191Z,22.90
2018-07-28T03:36:34.201Z,22.90
2018-07-28T03:37:07.227Z,22.90
2018-07-28T03:37:40.240Z,22.90
2018-07-28T03:38:13.204Z,22.90
2018-07-28T03:38:46.551Z,22.90
2018-07-28T03:39:19.588Z,22.80
2018-07-28T03:39:53.279Z,22.90
2018-07-28T03:40:26.331Z,22.70
2018-07-28T03:40:59.335Z,22.80
2018-07-28T03:41:32.293Z,22.80
2018-07-28T03:42:05.277Z,22.80
2018-07-28T03:42:38.323Z,22.90
2018-07-28T03:43:11.330Z,22.80
2018-07-28T03:43:44.347Z,22.90
2018-07-28T03:44:17.393Z,22.80
2018-07-28T03:44:50.477Z,22.80
2018-07-28T03:45:23.513Z,22.90
2018-07-28T03:45:56.523Z,22.70
2018-07-28T03:46:29.569Z,22.70
2018-07-28T03:47:02.568Z,22.80
2018-07-28T03:47:35.747Z,22.80
2018-07-28T03:48:08.799Z,22.90
2018-07-28T03:48:41.777Z,23.00
2018-07-28T03:49:14.862Z,22.80
2018-07-28T03:49:47.855Z,22.80
2018-07-28T03:50:20.915Z,23.00
2018-07-28T03:50:55.146Z,22.90
2018-07-28T03:51:28.151Z,23.00
2018-07-28T03:52:01.215Z,23.00
2018-07-28T03:52:34.255Z,23.00
2018-07-28T03:53:07.306Z,23.10
2018-07-28T03:53:40.463Z,23.20
2018-07-28T03:54:13.455Z,23.10
2018-07-28T03:54:46.456Z,23.20
2018-07-28T03:55:19.464Z,23.20
2018-07-28T03:55:52.521Z,23.30
2018-07-28T03:56:25.595Z,23.30
2018-07-28T03:56:58.625Z,23.30
2018-07-28T03:57:31.691Z,23.40
2018-07-28T03:58:04.757Z,23.30
2018-07-28T03:58:37.711Z,23.40
2018-07-28T03:59:10.718Z,23.40
2018-07-28T03:59:43.918Z,23.40
2018-07-28T04:00:16.989Z,23.40
2018-07-28T04:00:50.051Z,23.40
2018-07-28T04:01:23.069Z,23.50
2018-07-28T04:01:56.129Z,23.60
2018-07-28T04:02:29.151Z,23.50
2018-07-28T04:03:02.169Z,23.50
2018-07-28T04:03:35.289Z,23.60
2018-07-28T04:04:08.338Z,23.60
2018-07-28T04:04:41.363Z,23.60
2018-07-28T04:05:14.419Z,23.60
2018-07-28T04:05:47.431Z,23.60
2018-07-28T04:06:20.459Z,23.60
2018-07-28T04:06:53.457Z,23.60
2018-07-28T04:07:26.519Z,23.70
2018-07-28T04:07:59.567Z,23.70
2018-07-28T04:08:32.689Z,23.70
2018-07-28T04:09:07.639Z,23.70
2018-07-28T04:09:40.651Z,23.70
2018-07-28T04:10:13.619Z,23.60
2018-07-28T04:10:46.633Z,23.60
2018-07-28T04:11:19.841Z,23.70
2018-07-28T04:11:52.869Z,23.70
2018-07-28T04:12:26.005Z,23.80
2018-07-28T04:12:59.013Z,23.80
2018-07-28T04:13:32.027Z,23.70
2018-07-28T04:14:05.112Z,23.60
2018-07-28T04:14:38.129Z,23.80
2018-07-28T04:15:12.494Z,23.70
2018-07-28T04:15:45.483Z,23.70
2018-07-28T04:16:18.533Z,23.80
2018-07-28T04:16:51.559Z,23.90
2018-07-28T04:17:24.597Z,23.90
2018-07-28T04:17:57.643Z,23.70
2018-07-28T04:18:30.689Z,23.80
2018-07-28T04:19:03.875Z,23.90
2018-07-28T04:19:36.894Z,23.90
2018-07-28T04:20:09.911Z,23.90
2018-07-28T04:20:42.938Z,23.90
2018-07-28T04:21:15.981Z,23.90
2018-07-28T04:21:49.031Z,23.90
2018-07-28T04:22:22.109Z,23.90
2018-07-28T04:22:55.339Z,24.00
2018-07-28T04:23:28.343Z,24.00
2018-07-28T04:24:01.351Z,23.90
2018-07-28T04:24:34.351Z,24.00
2018-07-28T04:25:07.425Z,23.90
2018-07-28T04:25:40.465Z,23.90
2018-07-28T04:26:13.447Z,23.80
2018-07-28T04:26:46.466Z,23.60
2018-07-28T04:27:19.471Z,23.60
2018-07-28T04:27:52.481Z,23.60
2018-07-28T04:28:25.838Z,23.60
2018-07-28T04:28:58.937Z,23.50
2018-07-28T04:29:31.965Z,23.60
2018-07-28T04:30:05.579Z,23.30
2018-07-28T04:30:38.605Z,23.40
2018-07-28T04:31:11.646Z,23.40
2018-07-28T04:31:44.653Z,23.40
2018-07-28T04:32:17.736Z,23.30
2018-07-28T04:32:50.747Z,23.40
2018-07-28T04:33:23.731Z,23.40
2018-07-28T04:33:56.698Z,23.40
2018-07-28T04:34:29.710Z,23.30
2018-07-28T04:35:02.787Z,23.50
2018-07-28T04:35:35.840Z,23.60
2018-07-28T04:36:08.816Z,23.50
2018-07-28T04:36:41.829Z,23.50
2018-07-28T04:37:14.851Z,23.50
2018-07-28T04:37:47.864Z,23.60
2018-07-28T04:38:20.855Z,23.50
2018-07-28T04:38:53.874Z,23.50
2018-07-28T04:39:26.898Z,23.60
2018-07-28T04:39:59.913Z,23.50
2018-07-28T04:40:32.895Z,23.40
2018-07-28T04:41:05.960Z,23.40
2018-07-28T04:41:39.135Z,23.30
2018-07-28T04:42:12.104Z,23.30
2018-07-28T04:42:45.176Z,23.30
2018-07-28T04:43:18.194Z,23.40
2018-07-28T04:43:51.158Z,23.40
2018-07-28T04:44:24.140Z,23.50
2018-07-28T04:44:57.141Z,23.50
2018-07-28T04:45:30.150Z,23.60
2018-07-28T04:46:03.245Z,23.60
2018-07-28T04:46:36.685Z,23.60
2018-07-28T04:47:09.699Z,23.60
2018-07-28T04:47:42.691Z,23.50
2018-07-28T04:48:15.713Z,23.60
2018-07-28T04:48:48.675Z,23.70
2018-07-28T04:49:21.663Z,23.50
2018-07-28T04:49:54.653Z,23.50
2018-07-28T04:50:27.627Z,23.50
2018-07-28T04:51:00.634Z,23.60
2018-07-28T04:51:33.944Z,23.50
2018-07-28T04:52:07.009Z,23.50
2018-07-28T04:52:40.065Z,23.60
2018-07-28T04:54:01.836Z,23.40
2018-07-28T04:54:34.917Z,23.30
2018-07-28T04:55:07.941Z,23.30
2018-07-28T04:55:40.967Z,23.20
2018-07-28T04:56:13.985Z,23.10
2018-07-28T04:56:47.089Z,23.10
2018-07-28T04:57:20.084Z,23.20
2018-07-28T04:57:53.149Z,23.10
2018-07-28T04:58:26.164Z,23.20
2018-07-28T04:58:59.150Z,23.20
2018-07-28T04:59:32.766Z,23.20
2018-07-28T05:00:05.917Z,23.30
2018-07-28T05:00:39.007Z,23.40
2018-07-28T05:01:12.047Z,23.40
2018-07-28T05:01:45.073Z,23.40
2018-07-28T05:02:18.055Z,23.50
2018-07-28T05:02:51.098Z,23.50
2018-07-28T05:03:24.086Z,23.60
2018-07-28T05:03:57.070Z,23.60
2018-07-28T05:04:30.189Z,23.70
2018-07-28T05:05:03.542Z,23.70
2018-07-28T05:05:36.593Z,23.80
2018-07-28T05:06:09.649Z,23.80
2018-07-28T05:06:42.641Z,23.90
2018-07-28T05:07:15.750Z,23.80
2018-07-28T05:07:48.689Z,23.80
2018-07-28T05:08:21.708Z,23.90
2018-07-28T05:08:54.734Z,23.90
2018-07-28T05:09:27.713Z,23.90
2018-07-28T05:10:00.729Z,24.00
2018-07-28T05:10:33.754Z,23.90
2018-07-28T05:11:06.819Z,24.00
2018-07-28T05:11:39.919Z,23.80
2018-07-28T05:12:12.895Z,23.80
2018-07-28T05:12:45.961Z,24.00
2018-07-28T05:13:18.973Z,23.90
2018-07-28T05:13:51.975Z,23.80
2018-07-28T05:14:25.570Z,24.00
2018-07-28T05:14:58.695Z,24.00
2018-07-28T05:15:31.718Z,24.00
2018-07-28T05:16:04.891Z,24.10
2018-07-28T05:16:37.849Z,24.20
2018-07-28T05:17:10.837Z,24.20
2018-07-28T05:17:43.829Z,24.20
2018-07-28T05:18:16.837Z,24.30
2018-07-28T05:18:49.901Z,24.40
2018-07-28T05:19:22.895Z,24.40
2018-07-28T05:19:55.907Z,24.50
2018-07-28T05:20:28.907Z,24.50
2018-07-28T05:21:01.909Z,24.50
2018-07-28T05:21:34.943Z,24.50
2018-07-28T05:22:07.935Z,24.50
2018-07-28T05:22:40.949Z,24.60
2018-07-28T05:23:13.958Z,24.60
2018-07-28T05:23:46.974Z,24.60
2018-07-28T05:24:19.943Z,24.70
2018-07-28T05:24:53.021Z,24.70
2018-07-28T05:25:26.069Z,24.70
2018-07-28T05:25:59.079Z,24.70
2018-07-28T05:26:32.071Z,24.80
2018-07-28T05:27:05.404Z,24.70
2018-07-28T05:27:38.457Z,24.80
2018-07-28T05:28:11.440Z,24.70
2018-07-28T05:28:44.465Z,24.80
2018-07-28T05:29:17.471Z,24.70
2018-07-28T05:29:50.473Z,24.80
2018-07-28T05:30:23.497Z,24.70
2018-07-28T05:30:56.487Z,24.90
2018-07-28T05:31:29.507Z,24.80
2018-07-28T05:32:02.501Z,24.80
2018-07-28T05:32:35.509Z,24.80
2018-07-28T05:33:08.561Z,24.70
2018-07-28T05:33:41.591Z,24.60
2018-07-28T05:34:14.625Z,24.40
2018-07-28T05:34:47.615Z,24.30
2018-07-28T05:35:20.633Z,24.50
2018-07-28T05:35:53.739Z,24.60
2018-07-28T05:36:26.767Z,24.50
2018-07-28T05:36:59.843Z,24.50
2018-07-28T05:37:32.821Z,24.60
2018-07-28T05:38:05.902Z,24.50
2018-07-28T05:38:38.859Z,24.60
2018-07-28T05:39:12.347Z,24.50
2018-07-28T05:39:45.318Z,24.50
2018-07-28T05:40:18.319Z,24.40
2018-07-28T05:40:51.287Z,24.60
2018-07-28T05:41:24.323Z,24.60
2018-07-28T05:42:48.163Z,24.90
2018-07-28T05:43:21.160Z,25.00
2018-07-28T05:43:54.153Z,24.90
2018-07-28T05:44:27.218Z,25.00
2018-07-28T05:45:00.293Z,25.00
2018-07-28T05:45:33.273Z,25.00
2018-07-28T05:46:06.329Z,25.00
2018-07-28T05:46:39.333Z,25.20
2018-07-28T05:47:12.327Z,25.20
2018-07-28T05:47:45.337Z,25.30
2018-07-28T05:49:47.955Z,25.30
2018-07-28T05:50:20.994Z,25.20
2018-07-28T05:50:54.012Z,25.40
2018-07-28T05:51:27.073Z,25.40
2018-07-28T05:52:00.104Z,25.30
2018-07-28T05:52:33.053Z,25.40
2018-07-28T05:53:06.467Z,25.50
2018-07-28T05:53:39.795Z,25.30
2018-07-28T05:54:12.859Z,25.40
2018-07-28T05:54:45.879Z,25.40
2018-07-28T05:55:18.877Z,25.50
2018-07-28T05:55:51.895Z,25.60
2018-07-28T05:56:24.919Z,25.60
2018-07-28T05:56:58.036Z,25.70
2018-07-28T05:57:31.093Z,25.70
2018-07-28T05:58:04.209Z,25.80
2018-07-28T05:58:37.245Z,25.80
2018-07-28T05:59:10.323Z,25.80
2018-07-28T05:59:43.357Z,25.80
2018-07-28T06:00:16.493Z,25.80
2018-07-28T06:00:49.518Z,25.80
2018-07-28T06:01:23.153Z,25.80
2018-07-28T06:01:56.153Z,25.80
2018-07-28T06:02:29.216Z,25.90
2018-07-28T06:03:06.374Z,25.90
2018-07-28T06:03:39.475Z,25.80
2018-07-28T06:04:12.449Z,25.90
2018-07-28T06:04:45.495Z,25.80
2018-07-28T06:05:18.543Z,25.80
2018-07-28T06:05:51.557Z,25.80
2018-07-28T06:06:24.583Z,25.80
2018-07-28T06:06:57.643Z,25.70
2018-07-28T06:07:30.649Z,25.80
2018-07-28T06:08:04.424Z,25.90
2018-07-28T06:08:37.443Z,25.90
2018-07-28T06:09:10.735Z,25.80
2018-07-28T06:09:43.753Z,25.80
2018-07-28T06:10:16.805Z,25.80
2018-07-28T06:10:49.866Z,25.80
2018-07-28T06:11:22.815Z,25.60
2018-07-28T06:11:55.855Z,25.70
2018-07-28T06:12:28.901Z,25.60
2018-07-28T06:13:01.949Z,25.60
2018-07-28T06:13:35.003Z,25.60
2018-07-28T06:14:08.096Z,25.70
2018-07-28T06:14:41.105Z,25.70
2018-07-28T06:15:14.145Z,25.80
2018-07-28T06:15:47.157Z,25.80
2018-07-28T06:16:20.185Z,26.00
2018-07-28T06:16:53.218Z,25.90
2018-07-28T06:17:26.219Z,26.00
2018-07-28T06:17:59.282Z,26.10
2018-07-28T06:18:32.372Z,26.10
2018-07-28T06:19:05.357Z,26.10
2018-07-28T06:19:38.335Z,26.20
2018-07-28T06:20:11.503Z,26.40
2018-07-28T06:20:44.481Z,26.40
2018-07-28T06:21:17.468Z,26.50
2018-07-28T06:21:50.484Z,26.60
2018-07-28T06:22:23.435Z,26.70
2018-07-28T06:22:56.440Z,26.80
2018-07-28T06:23:29.471Z,26.90
2018-07-28T06:24:02.496Z,27.00
2018-07-28T06:24:36.212Z,27.00
2018-07-28T06:25:09.363Z,27.20
2018-07-28T06:25:42.437Z,27.20
2018-07-28T06:26:15.432Z,27.40
2018-07-28T06:26:48.467Z,27.50
2018-07-28T06:27:21.505Z,27.80
2018-07-28T06:27:54.481Z,27.80
2018-07-28T06:28:27.463Z,28.00
2018-07-28T06:29:00.496Z,28.00
2018-07-28T06:29:33.534Z,28.30
2018-07-28T06:30:08.234Z,28.30
2018-07-28T06:30:41.227Z,28.20
2018-07-28T06:31:14.262Z,28.20
2018-07-28T06:31:47.282Z,28.30
2018-07-28T06:32:20.406Z,28.50
2018-07-28T06:32:53.456Z,28.50
2018-07-28T06:33:26.467Z,28.50
2018-07-28T06:33:59.448Z,28.70
2018-07-28T06:34:32.470Z,28.70
2018-07-28T06:35:05.504Z,28.90
2018-07-28T06:35:38.532Z,28.80
2018-07-28T06:36:11.498Z,28.70
2018-07-28T06:36:44.500Z,28.80
2018-07-28T06:37:17.478Z,28.80
2018-07-28T06:37:50.457Z,28.80
2018-07-28T06:38:23.483Z,28.90
2018-07-28T06:38:56.503Z,28.90
2018-07-28T06:39:29.497Z,28.80
2018-07-28T06:40:02.557Z,28.80
2018-07-28T06:40:35.590Z,28.70
2018-07-28T06:41:08.594Z,28.50
2018-07-28T06:41:41.627Z,28.50
2018-07-28T06:42:14.634Z,28.50
2018-07-28T06:42:47.680Z,28.40
2018-07-28T06:43:20.738Z,28.30
2018-07-28T06:43:53.755Z,28.40
2018-07-28T06:44:26.796Z,28.30
2018-07-28T06:44:59.792Z,28.20
2018-07-28T06:45:32.781Z,28.10
2018-07-28T06:46:05.803Z,28.10
2018-07-28T06:46:39.022Z,28.10
2018-07-28T06:47:11.991Z,28.10
2018-07-28T06:47:45.007Z,28.00
2018-07-28T06:48:18.917Z,28.10
2018-07-28T06:48:51.950Z,27.90
2018-07-28T06:49:24.923Z,27.90
2018-07-28T06:49:57.880Z,28.00
2018-07-28T06:50:30.898Z,27.80
2018-07-28T06:51:03.935Z,27.70
2018-07-28T06:51:36.955Z,27.60
2018-07-28T06:52:09.972Z,27.50
2018-07-28T06:52:42.961Z,27.30
2018-07-28T06:53:15.933Z,27.20
2018-07-28T06:53:49.596Z,27.20
2018-07-28T06:54:22.538Z,27.30
2018-07-28T06:54:55.528Z,27.30
2018-07-28T06:55:28.547Z,27.30
2018-07-28T06:56:01.563Z,27.20
2018-07-28T06:56:34.587Z,27.00
2018-07-28T06:57:07.602Z,27.00
2018-07-28T06:57:40.615Z,26.90
2018-07-28T06:58:13.648Z,26.70
2018-07-28T06:58:46.651Z,26.80
2018-07-28T06:59:19.626Z,26.70
2018-07-28T06:59:53.062Z,26.60
2018-07-28T07:00:26.156Z,26.50
2018-07-28T07:00:59.183Z,26.40
2018-07-28T07:01:32.215Z,26.40
2018-07-28T07:02:05.866Z,26.30
2018-07-28T07:02:38.830Z,26.30
2018-07-28T07:03:11.812Z,26.20
2018-07-28T07:03:44.815Z,26.30
2018-07-28T07:04:17.825Z,26.20
2018-07-28T07:04:50.862Z,26.30
2018-07-28T07:05:23.802Z,26.10
2018-07-28T07:05:56.773Z,26.10
2018-07-28T07:06:29.735Z,26.10
2018-07-28T07:07:02.775Z,26.10
2018-07-28T07:07:35.814Z,26.10
2018-07-28T07:08:08.794Z,26.10
2018-07-28T07:08:41.795Z,26.10
2018-07-28T07:09:14.762Z,26.00
2018-07-28T07:09:47.767Z,25.90
2018-07-28T07:10:20.756Z,25.90
2018-07-28T07:10:53.779Z,26.00